sensor_id;sensor_type;location;lat;lon;timestamp;P1;durP1;ratioP1;P2;durP2;ratioP2
4214;SDS011;2121;48.062;7.850;2022-12-08T00:01:48;8.70;;;6.43;;
4214;SDS011;2121;48.062;7.850;2022-12-08T00:04:13;7.43;;;5.43;;
4214;SDS011;2121;48.062;7.850;2022-12-08T00:06:39;9.03;;;6.70;;
4214;SDS011;2121;48.062;7.850;2022-12-08T00:09:36;12.47;;;7.77;;
4214;SDS011;2121;48.062;7.850;2022-12-08T00:17:08;6.63;;;5.13;;
4214;SDS011;2121;48.062;7.850;2022-12-08T00:19:36;6.17;;;5.10;;
4214;SDS011;2121;48.062;7.850;2022-12-08T00:22:04;6.20;;;4.70;;
4214;SDS011;2121;48.062;7.850;2022-12-08T00:24:32;7.27;;;4.60;;
4214;SDS011;2121;48.062;7.850;2022-12-08T00:27:00;7.90;;;4.73;;
4214;SDS011;2121;48.062;7.850;2022-12-08T00:29:26;4.97;;;4.50;;
4214;SDS011;2121;48.062;7.850;2022-12-08T00:31:52;6.20;;;4.43;;
4214;SDS011;2121;48.062;7.850;2022-12-08T00:34:18;8.23;;;4.87;;
4214;SDS011;2121;48.062;7.850;2022-12-08T00:36:44;9.23;;;5.37;;
4214;SDS011;2121;48.062;7.850;2022-12-08T00:39:10;7.00;;;5.13;;
4214;SDS011;2121;48.062;7.850;2022-12-08T00:41:37;10.03;;;6.17;;
4214;SDS011;2121;48.062;7.850;2022-12-08T00:44:22;7.27;;;5.07;;
4214;SDS011;2121;48.062;7.850;2022-12-08T00:46:47;7.03;;;4.80;;
4214;SDS011;2121;48.062;7.850;2022-12-08T00:49:14;8.20;;;5.23;;
4214;SDS011;2121;48.062;7.850;2022-12-08T00:51:40;6.27;;;4.70;;
4214;SDS011;2121;48.062;7.850;2022-12-08T00:54:07;10.20;;;6.10;;
4214;SDS011;2121;48.062;7.850;2022-12-08T00:56:34;10.40;;;5.30;;
4214;SDS011;2121;48.062;7.850;2022-12-08T00:59:00;6.93;;;4.70;;
4214;SDS011;2121;48.062;7.850;2022-12-08T01:01:26;6.33;;;4.60;;
4214;SDS011;2121;48.062;7.850;2022-12-08T01:03:52;9.33;;;5.20;;
4214;SDS011;2121;48.062;7.850;2022-12-08T01:06:18;8.53;;;5.20;;
4214;SDS011;2121;48.062;7.850;2022-12-08T01:08:44;6.20;;;5.07;;
4214;SDS011;2121;48.062;7.850;2022-12-08T01:11:12;7.97;;;5.67;;
4214;SDS011;2121;48.062;7.850;2022-12-08T01:13:43;10.60;;;5.80;;
4214;SDS011;2121;48.062;7.850;2022-12-08T01:16:10;8.50;;;5.00;;
4214;SDS011;2121;48.062;7.850;2022-12-08T01:18:48;9.03;;;6.00;;
4214;SDS011;2121;48.062;7.850;2022-12-08T01:21:15;5.13;;;4.43;;
4214;SDS011;2121;48.062;7.850;2022-12-08T01:23:41;5.93;;;5.33;;
4214;SDS011;2121;48.062;7.850;2022-12-08T01:26:08;13.67;;;6.50;;
4214;SDS011;2121;48.062;7.850;2022-12-08T01:28:36;12.37;;;7.00;;
4214;SDS011;2121;48.062;7.850;2022-12-08T01:31:02;10.47;;;6.60;;
4214;SDS011;2121;48.062;7.850;2022-12-08T01:33:28;20.23;;;11.20;;
4214;SDS011;2121;48.062;7.850;2022-12-08T01:35:55;16.17;;;9.60;;
4214;SDS011;2121;48.062;7.850;2022-12-08T01:38:28;11.77;;;7.33;;
4214;SDS011;2121;48.062;7.850;2022-12-08T01:40:54;8.77;;;6.70;;
4214;SDS011;2121;48.062;7.850;2022-12-08T01:43:20;8.43;;;5.90;;
4214;SDS011;2121;48.062;7.850;2022-12-08T01:45:46;9.80;;;6.17;;
4214;SDS011;2121;48.062;7.850;2022-12-08T01:48:16;8.77;;;7.07;;
4214;SDS011;2121;48.062;7.850;2022-12-08T01:50:50;10.57;;;7.13;;
4214;SDS011;2121;48.062;7.850;2022-12-08T01:53:22;7.97;;;6.20;;
4214;SDS011;2121;48.062;7.850;2022-12-08T01:56:05;13.40;;;6.70;;
4214;SDS011;2121;48.062;7.850;2022-12-08T01:59:13;10.00;;;7.20;;
4214;SDS011;2121;48.062;7.850;2022-12-08T02:01:39;9.60;;;6.97;;
4214;SDS011;2121;48.062;7.850;2022-12-08T02:04:05;9.47;;;6.57;;
4214;SDS011;2121;48.062;7.850;2022-12-08T02:06:35;18.97;;;7.10;;
4214;SDS011;2121;48.062;7.850;2022-12-08T02:09:05;16.57;;;7.00;;
4214;SDS011;2121;48.062;7.850;2022-12-08T02:11:31;8.77;;;7.03;;
4214;SDS011;2121;48.062;7.850;2022-12-08T02:13:57;10.00;;;6.50;;
4214;SDS011;2121;48.062;7.850;2022-12-08T02:22:13;10.20;;;7.30;;
4214;SDS011;2121;48.062;7.850;2022-12-08T02:24:49;10.50;;;6.30;;
4214;SDS011;2121;48.062;7.850;2022-12-08T02:35:36;7.33;;;5.43;;
4214;SDS011;2121;48.062;7.850;2022-12-08T02:44:44;5.90;;;5.27;;
4214;SDS011;2121;48.062;7.850;2022-12-08T02:47:13;6.73;;;5.13;;
4214;SDS011;2121;48.062;7.850;2022-12-08T02:49:43;5.67;;;4.90;;
4214;SDS011;2121;48.062;7.850;2022-12-08T02:54:38;5.43;;;4.40;;
4214;SDS011;2121;48.062;7.850;2022-12-08T02:57:21;5.33;;;4.70;;
4214;SDS011;2121;48.062;7.850;2022-12-08T03:00:11;7.23;;;4.73;;
4214;SDS011;2121;48.062;7.850;2022-12-08T03:10:54;11.30;;;5.00;;
4214;SDS011;2121;48.062;7.850;2022-12-08T03:13:38;6.93;;;5.37;;
4214;SDS011;2121;48.062;7.850;2022-12-08T03:16:17;6.37;;;4.53;;
4214;SDS011;2121;48.062;7.850;2022-12-08T03:18:48;8.37;;;4.43;;
4214;SDS011;2121;48.062;7.850;2022-12-08T03:21:20;4.87;;;4.13;;
4214;SDS011;2121;48.062;7.850;2022-12-08T03:23:48;6.37;;;4.63;;
4214;SDS011;2121;48.062;7.850;2022-12-08T03:26:18;8.50;;;4.80;;
4214;SDS011;2121;48.062;7.850;2022-12-08T03:28:55;5.37;;;4.40;;
4214;SDS011;2121;48.062;7.850;2022-12-08T03:31:21;5.63;;;4.37;;
4214;SDS011;2121;48.062;7.850;2022-12-08T03:33:51;6.27;;;4.40;;
4214;SDS011;2121;48.062;7.850;2022-12-08T03:36:20;7.53;;;4.97;;
4214;SDS011;2121;48.062;7.850;2022-12-08T03:38:49;5.37;;;3.50;;
4214;SDS011;2121;48.062;7.850;2022-12-08T03:41:20;6.63;;;5.30;;
4214;SDS011;2121;48.062;7.850;2022-12-08T03:43:50;7.10;;;4.50;;
4214;SDS011;2121;48.062;7.850;2022-12-08T03:46:20;5.97;;;4.53;;
4214;SDS011;2121;48.062;7.850;2022-12-08T03:48:48;8.03;;;5.37;;
4214;SDS011;2121;48.062;7.850;2022-12-08T03:51:14;7.77;;;4.87;;
4214;SDS011;2121;48.062;7.850;2022-12-08T03:53:41;8.23;;;5.23;;
4214;SDS011;2121;48.062;7.850;2022-12-08T03:58:57;8.10;;;5.87;;
4214;SDS011;2121;48.062;7.850;2022-12-08T04:01:24;12.60;;;5.63;;
4214;SDS011;2121;48.062;7.850;2022-12-08T04:03:49;5.23;;;3.80;;
4214;SDS011;2121;48.062;7.850;2022-12-08T04:06:16;6.23;;;4.03;;
4214;SDS011;2121;48.062;7.850;2022-12-08T04:08:42;7.27;;;4.67;;
4214;SDS011;2121;48.062;7.850;2022-12-08T04:11:08;7.17;;;5.20;;
4214;SDS011;2121;48.062;7.850;2022-12-08T04:13:35;8.93;;;5.17;;
4214;SDS011;2121;48.062;7.850;2022-12-08T04:16:03;5.47;;;4.47;;
4214;SDS011;2121;48.062;7.850;2022-12-08T04:18:29;6.87;;;4.80;;
4214;SDS011;2121;48.062;7.850;2022-12-08T04:20:56;6.83;;;4.30;;
4214;SDS011;2121;48.062;7.850;2022-12-08T04:23:22;4.07;;;3.37;;
4214;SDS011;2121;48.062;7.850;2022-12-08T04:25:49;5.63;;;4.47;;
4214;SDS011;2121;48.062;7.850;2022-12-08T04:28:16;4.97;;;4.57;;
4214;SDS011;2121;48.062;7.850;2022-12-08T04:30:42;5.80;;;4.30;;
4214;SDS011;2121;48.062;7.850;2022-12-08T04:33:07;4.27;;;3.40;;
4214;SDS011;2121;48.062;7.850;2022-12-08T04:35:33;4.93;;;4.33;;
4214;SDS011;2121;48.062;7.850;2022-12-08T04:37:59;8.63;;;5.43;;
4214;SDS011;2121;48.062;7.850;2022-12-08T04:40:25;5.47;;;4.40;;
4214;SDS011;2121;48.062;7.850;2022-12-08T04:42:51;8.73;;;5.57;;
4214;SDS011;2121;48.062;7.850;2022-12-08T04:45:17;4.60;;;4.20;;
4214;SDS011;2121;48.062;7.850;2022-12-08T04:47:42;5.83;;;4.80;;
4214;SDS011;2121;48.062;7.850;2022-12-08T04:50:08;6.60;;;4.20;;
4214;SDS011;2121;48.062;7.850;2022-12-08T04:52:35;5.60;;;3.60;;
4214;SDS011;2121;48.062;7.850;2022-12-08T04:55:01;5.10;;;4.40;;
4214;SDS011;2121;48.062;7.850;2022-12-08T04:57:27;7.13;;;3.97;;
4214;SDS011;2121;48.062;7.850;2022-12-08T04:59:53;14.60;;;4.80;;
4214;SDS011;2121;48.062;7.850;2022-12-08T05:02:18;5.27;;;3.80;;
4214;SDS011;2121;48.062;7.850;2022-12-08T05:04:44;7.83;;;5.07;;
4214;SDS011;2121;48.062;7.850;2022-12-08T05:07:10;5.37;;;3.90;;
4214;SDS011;2121;48.062;7.850;2022-12-08T05:09:36;5.53;;;4.67;;
4214;SDS011;2121;48.062;7.850;2022-12-08T05:12:02;9.40;;;5.07;;
4214;SDS011;2121;48.062;7.850;2022-12-08T05:14:28;5.63;;;4.23;;
4214;SDS011;2121;48.062;7.850;2022-12-08T05:16:54;6.83;;;4.70;;
4214;SDS011;2121;48.062;7.850;2022-12-08T05:19:19;9.47;;;6.33;;
4214;SDS011;2121;48.062;7.850;2022-12-08T05:21:45;7.57;;;6.20;;
4214;SDS011;2121;48.062;7.850;2022-12-08T05:24:11;7.67;;;6.93;;
4214;SDS011;2121;48.062;7.850;2022-12-08T05:26:36;9.70;;;6.80;;
4214;SDS011;2121;48.062;7.850;2022-12-08T05:29:02;6.57;;;5.90;;
4214;SDS011;2121;48.062;7.850;2022-12-08T05:31:28;8.43;;;6.30;;
4214;SDS011;2121;48.062;7.850;2022-12-08T05:33:54;8.97;;;6.00;;
4214;SDS011;2121;48.062;7.850;2022-12-08T05:36:19;10.23;;;6.03;;
4214;SDS011;2121;48.062;7.850;2022-12-08T05:38:45;6.97;;;5.63;;
4214;SDS011;2121;48.062;7.850;2022-12-08T05:41:17;7.60;;;4.67;;
4214;SDS011;2121;48.062;7.850;2022-12-08T05:43:45;6.63;;;4.70;;
4214;SDS011;2121;48.062;7.850;2022-12-08T05:46:11;7.20;;;5.03;;
4214;SDS011;2121;48.062;7.850;2022-12-08T05:48:38;5.87;;;4.33;;
4214;SDS011;2121;48.062;7.850;2022-12-08T05:51:05;5.03;;;4.30;;
4214;SDS011;2121;48.062;7.850;2022-12-08T05:53:40;9.83;;;4.53;;
4214;SDS011;2121;48.062;7.850;2022-12-08T05:56:05;6.43;;;5.77;;
4214;SDS011;2121;48.062;7.850;2022-12-08T05:58:31;9.13;;;4.90;;
4214;SDS011;2121;48.062;7.850;2022-12-08T06:00:57;4.20;;;3.77;;
4214;SDS011;2121;48.062;7.850;2022-12-08T06:03:23;6.70;;;4.10;;
4214;SDS011;2121;48.062;7.850;2022-12-08T06:05:48;7.90;;;4.67;;
4214;SDS011;2121;48.062;7.850;2022-12-08T06:08:14;6.90;;;4.67;;
4214;SDS011;2121;48.062;7.850;2022-12-08T06:10:40;6.63;;;4.80;;
4214;SDS011;2121;48.062;7.850;2022-12-08T06:13:08;4.73;;;4.23;;
4214;SDS011;2121;48.062;7.850;2022-12-08T06:15:35;5.13;;;4.47;;
4214;SDS011;2121;48.062;7.850;2022-12-08T06:18:02;5.03;;;4.30;;
4214;SDS011;2121;48.062;7.850;2022-12-08T06:20:29;5.57;;;4.10;;
4214;SDS011;2121;48.062;7.850;2022-12-08T06:22:55;7.50;;;4.80;;
4214;SDS011;2121;48.062;7.850;2022-12-08T06:25:21;6.27;;;4.90;;
4214;SDS011;2121;48.062;7.850;2022-12-08T06:27:47;8.30;;;5.47;;
4214;SDS011;2121;48.062;7.850;2022-12-08T06:30:14;6.17;;;5.03;;
4214;SDS011;2121;48.062;7.850;2022-12-08T06:32:40;9.07;;;4.50;;
4214;SDS011;2121;48.062;7.850;2022-12-08T06:35:06;8.07;;;4.47;;
4214;SDS011;2121;48.062;7.850;2022-12-08T06:37:33;8.50;;;4.17;;
4214;SDS011;2121;48.062;7.850;2022-12-08T06:39:58;10.40;;;5.30;;
4214;SDS011;2121;48.062;7.850;2022-12-08T06:42:24;5.33;;;4.80;;
4214;SDS011;2121;48.062;7.850;2022-12-08T06:45:08;7.63;;;5.73;;
4214;SDS011;2121;48.062;7.850;2022-12-08T06:47:39;8.10;;;4.63;;
4214;SDS011;2121;48.062;7.850;2022-12-08T06:50:05;6.00;;;4.60;;
4214;SDS011;2121;48.062;7.850;2022-12-08T06:52:33;6.27;;;4.43;;
4214;SDS011;2121;48.062;7.850;2022-12-08T06:54:58;5.30;;;4.30;;
4214;SDS011;2121;48.062;7.850;2022-12-08T06:57:24;7.17;;;4.30;;
4214;SDS011;2121;48.062;7.850;2022-12-08T06:59:50;5.40;;;4.20;;
4214;SDS011;2121;48.062;7.850;2022-12-08T07:02:16;7.00;;;4.93;;
4214;SDS011;2121;48.062;7.850;2022-12-08T07:04:42;7.30;;;4.50;;
4214;SDS011;2121;48.062;7.850;2022-12-08T07:07:08;6.93;;;5.00;;
4214;SDS011;2121;48.062;7.850;2022-12-08T07:09:34;6.97;;;4.27;;
4214;SDS011;2121;48.062;7.850;2022-12-08T07:12:01;5.87;;;5.00;;
4214;SDS011;2121;48.062;7.850;2022-12-08T07:14:28;7.60;;;6.20;;
4214;SDS011;2121;48.062;7.850;2022-12-08T07:16:54;7.03;;;5.87;;
4214;SDS011;2121;48.062;7.850;2022-12-08T07:19:20;5.97;;;4.70;;
4214;SDS011;2121;48.062;7.850;2022-12-08T07:21:46;6.77;;;4.80;;
4214;SDS011;2121;48.062;7.850;2022-12-08T07:24:12;9.50;;;5.93;;
4214;SDS011;2121;48.062;7.850;2022-12-08T07:26:38;9.67;;;5.63;;
4214;SDS011;2121;48.062;7.850;2022-12-08T07:29:04;10.33;;;5.00;;
4214;SDS011;2121;48.062;7.850;2022-12-08T07:31:30;6.57;;;4.63;;
4214;SDS011;2121;48.062;7.850;2022-12-08T07:33:56;5.40;;;4.63;;
4214;SDS011;2121;48.062;7.850;2022-12-08T07:36:22;7.77;;;5.33;;
4214;SDS011;2121;48.062;7.850;2022-12-08T07:38:50;8.57;;;5.33;;
4214;SDS011;2121;48.062;7.850;2022-12-08T07:41:18;6.67;;;6.07;;
4214;SDS011;2121;48.062;7.850;2022-12-08T07:43:47;14.23;;;6.93;;
4214;SDS011;2121;48.062;7.850;2022-12-08T07:46:13;16.57;;;9.13;;
4214;SDS011;2121;48.062;7.850;2022-12-08T07:48:41;9.77;;;6.43;;
4214;SDS011;2121;48.062;7.850;2022-12-08T07:51:08;13.80;;;6.37;;
4214;SDS011;2121;48.062;7.850;2022-12-08T07:53:37;8.57;;;6.53;;
4214;SDS011;2121;48.062;7.850;2022-12-08T07:56:09;7.53;;;6.43;;
4214;SDS011;2121;48.062;7.850;2022-12-08T07:58:36;13.23;;;7.73;;
4214;SDS011;2121;48.062;7.850;2022-12-08T08:01:02;16.77;;;10.70;;
4214;SDS011;2121;48.062;7.850;2022-12-08T08:03:28;23.33;;;11.20;;
4214;SDS011;2121;48.062;7.850;2022-12-08T08:05:54;25.27;;;15.27;;
4214;SDS011;2121;48.062;7.850;2022-12-08T08:08:27;24.90;;;16.30;;
4214;SDS011;2121;48.062;7.850;2022-12-08T08:10:52;25.17;;;13.60;;
4214;SDS011;2121;48.062;7.850;2022-12-08T08:13:18;12.70;;;7.40;;
4214;SDS011;2121;48.062;7.850;2022-12-08T08:15:44;6.43;;;5.80;;
4214;SDS011;2121;48.062;7.850;2022-12-08T08:18:09;9.33;;;6.40;;
4214;SDS011;2121;48.062;7.850;2022-12-08T08:20:35;9.63;;;6.87;;
4214;SDS011;2121;48.062;7.850;2022-12-08T08:23:01;14.40;;;6.03;;
4214;SDS011;2121;48.062;7.850;2022-12-08T08:25:26;7.90;;;5.70;;
4214;SDS011;2121;48.062;7.850;2022-12-08T08:27:52;6.67;;;5.27;;
4214;SDS011;2121;48.062;7.850;2022-12-08T08:30:19;7.97;;;5.17;;
4214;SDS011;2121;48.062;7.850;2022-12-08T08:32:44;7.07;;;5.97;;
4214;SDS011;2121;48.062;7.850;2022-12-08T08:35:10;13.57;;;5.27;;
4214;SDS011;2121;48.062;7.850;2022-12-08T08:37:36;22.03;;;11.47;;
4214;SDS011;2121;48.062;7.850;2022-12-08T08:40:02;17.60;;;6.87;;
4214;SDS011;2121;48.062;7.850;2022-12-08T08:42:28;13.10;;;7.67;;
4214;SDS011;2121;48.062;7.850;2022-12-08T08:44:54;10.00;;;6.33;;
4214;SDS011;2121;48.062;7.850;2022-12-08T08:47:20;7.67;;;6.80;;
4214;SDS011;2121;48.062;7.850;2022-12-08T08:49:45;12.93;;;7.57;;
4214;SDS011;2121;48.062;7.850;2022-12-08T08:52:11;13.00;;;6.97;;
4214;SDS011;2121;48.062;7.850;2022-12-08T08:54:37;9.77;;;6.43;;
4214;SDS011;2121;48.062;7.850;2022-12-08T08:57:02;12.67;;;6.77;;
4214;SDS011;2121;48.062;7.850;2022-12-08T08:59:28;8.30;;;6.30;;
4214;SDS011;2121;48.062;7.850;2022-12-08T09:01:54;16.30;;;8.27;;
4214;SDS011;2121;48.062;7.850;2022-12-08T09:04:20;12.20;;;8.07;;
4214;SDS011;2121;48.062;7.850;2022-12-08T09:06:47;15.20;;;8.13;;
4214;SDS011;2121;48.062;7.850;2022-12-08T09:09:14;8.20;;;6.40;;
4214;SDS011;2121;48.062;7.850;2022-12-08T09:11:43;29.20;;;11.50;;
4214;SDS011;2121;48.062;7.850;2022-12-08T09:14:15;11.97;;;7.73;;
4214;SDS011;2121;48.062;7.850;2022-12-08T09:16:41;16.77;;;9.00;;
4214;SDS011;2121;48.062;7.850;2022-12-08T09:19:07;16.10;;;10.10;;
4214;SDS011;2121;48.062;7.850;2022-12-08T09:21:33;9.20;;;7.63;;
4214;SDS011;2121;48.062;7.850;2022-12-08T09:23:58;9.53;;;6.70;;
4214;SDS011;2121;48.062;7.850;2022-12-08T09:26:25;8.30;;;6.53;;
4214;SDS011;2121;48.062;7.850;2022-12-08T09:28:52;11.40;;;7.37;;
4214;SDS011;2121;48.062;7.850;2022-12-08T09:31:20;11.53;;;7.37;;
4214;SDS011;2121;48.062;7.850;2022-12-08T09:33:48;7.40;;;6.63;;
4214;SDS011;2121;48.062;7.850;2022-12-08T09:36:15;10.67;;;6.80;;
4214;SDS011;2121;48.062;7.850;2022-12-08T09:38:42;9.97;;;6.30;;
4214;SDS011;2121;48.062;7.850;2022-12-08T09:41:13;13.20;;;8.10;;
4214;SDS011;2121;48.062;7.850;2022-12-08T09:47:02;11.80;;;8.80;;
4214;SDS011;2121;48.062;7.850;2022-12-08T09:49:40;9.00;;;6.43;;
4214;SDS011;2121;48.062;7.850;2022-12-08T09:52:21;6.23;;;5.63;;
4214;SDS011;2121;48.062;7.850;2022-12-08T09:54:56;10.47;;;7.17;;
4214;SDS011;2121;48.062;7.850;2022-12-08T09:57:27;7.90;;;6.47;;
4214;SDS011;2121;48.062;7.850;2022-12-08T09:59:57;8.83;;;6.30;;
4214;SDS011;2121;48.062;7.850;2022-12-08T10:02:29;6.17;;;5.30;;
4214;SDS011;2121;48.062;7.850;2022-12-08T10:04:55;6.20;;;5.60;;
4214;SDS011;2121;48.062;7.850;2022-12-08T10:16:03;5.83;;;4.67;;
4214;SDS011;2121;48.062;7.850;2022-12-08T10:18:59;6.40;;;5.77;;
4214;SDS011;2121;48.062;7.850;2022-12-08T10:21:38;7.30;;;5.93;;
4214;SDS011;2121;48.062;7.850;2022-12-08T10:24:08;7.30;;;5.07;;
4214;SDS011;2121;48.062;7.850;2022-12-08T10:26:48;7.40;;;4.97;;
4214;SDS011;2121;48.062;7.850;2022-12-08T10:29:14;4.53;;;4.10;;
4214;SDS011;2121;48.062;7.850;2022-12-08T10:31:40;4.87;;;4.47;;
4214;SDS011;2121;48.062;7.850;2022-12-08T10:34:13;9.47;;;5.40;;
4214;SDS011;2121;48.062;7.850;2022-12-08T10:36:57;6.87;;;4.63;;
4214;SDS011;2121;48.062;7.850;2022-12-08T10:47:26;11.20;;;6.57;;
4214;SDS011;2121;48.062;7.850;2022-12-08T10:52:38;10.10;;;7.50;;
4214;SDS011;2121;48.062;7.850;2022-12-08T10:57:44;17.17;;;10.77;;
4214;SDS011;2121;48.062;7.850;2022-12-08T11:00:13;22.77;;;12.10;;
4214;SDS011;2121;48.062;7.850;2022-12-08T11:03:00;22.80;;;12.03;;
4214;SDS011;2121;48.062;7.850;2022-12-08T11:05:32;23.50;;;12.80;;
4214;SDS011;2121;48.062;7.850;2022-12-08T11:07:59;22.77;;;12.80;;
4214;SDS011;2121;48.062;7.850;2022-12-08T11:10:35;18.30;;;11.20;;
4214;SDS011;2121;48.062;7.850;2022-12-08T11:13:11;18.33;;;11.33;;
4214;SDS011;2121;48.062;7.850;2022-12-08T11:15:50;23.40;;;11.60;;
4214;SDS011;2121;48.062;7.850;2022-12-08T11:18:28;22.77;;;11.20;;
4214;SDS011;2121;48.062;7.850;2022-12-08T11:21:12;21.03;;;11.00;;
4214;SDS011;2121;48.062;7.850;2022-12-08T11:23:42;15.87;;;10.40;;
4214;SDS011;2121;48.062;7.850;2022-12-08T11:28:56;11.90;;;9.17;;
4214;SDS011;2121;48.062;7.850;2022-12-08T11:31:26;20.03;;;11.47;;
4214;SDS011;2121;48.062;7.850;2022-12-08T11:33:58;19.30;;;10.40;;
4214;SDS011;2121;48.062;7.850;2022-12-08T11:36:26;17.83;;;9.93;;
4214;SDS011;2121;48.062;7.850;2022-12-08T11:38:59;17.03;;;9.87;;
4214;SDS011;2121;48.062;7.850;2022-12-08T11:41:35;13.77;;;9.50;;
4214;SDS011;2121;48.062;7.850;2022-12-08T11:47:06;11.93;;;8.53;;
4214;SDS011;2121;48.062;7.850;2022-12-08T11:49:44;13.87;;;8.63;;
4214;SDS011;2121;48.062;7.850;2022-12-08T11:57:59;12.60;;;8.90;;
4214;SDS011;2121;48.062;7.850;2022-12-08T12:00:39;12.13;;;8.50;;
4214;SDS011;2121;48.062;7.850;2022-12-08T12:03:15;13.93;;;8.87;;
4214;SDS011;2121;48.062;7.850;2022-12-08T12:16:05;11.20;;;8.10;;
4214;SDS011;2121;48.062;7.850;2022-12-08T12:18:28;11.67;;;7.47;;
4214;SDS011;2121;48.062;7.850;2022-12-08T12:26:30;14.70;;;7.60;;
4214;SDS011;2121;48.062;7.850;2022-12-08T12:29:02;13.77;;;8.10;;
4214;SDS011;2121;48.062;7.850;2022-12-08T12:31:40;19.10;;;10.00;;
4214;SDS011;2121;48.062;7.850;2022-12-08T12:39:30;16.10;;;10.37;;
4214;SDS011;2121;48.062;7.850;2022-12-08T12:41:59;15.13;;;10.23;;
4214;SDS011;2121;48.062;7.850;2022-12-08T12:47:00;16.77;;;10.20;;
4214;SDS011;2121;48.062;7.850;2022-12-08T12:54:44;14.93;;;9.90;;
4214;SDS011;2121;48.062;7.850;2022-12-08T12:57:36;16.93;;;9.70;;
4214;SDS011;2121;48.062;7.850;2022-12-08T13:10:25;15.80;;;10.40;;
4214;SDS011;2121;48.062;7.850;2022-12-08T13:18:55;19.17;;;10.80;;
4214;SDS011;2121;48.062;7.850;2022-12-08T13:26:09;13.77;;;9.33;;
4214;SDS011;2121;48.062;7.850;2022-12-08T13:34:19;21.23;;;10.30;;
4214;SDS011;2121;48.062;7.850;2022-12-08T13:40:08;18.10;;;11.10;;
4214;SDS011;2121;48.062;7.850;2022-12-08T13:45:41;20.37;;;11.27;;
4214;SDS011;2121;48.062;7.850;2022-12-08T13:48:12;21.80;;;11.87;;
4214;SDS011;2121;48.062;7.850;2022-12-08T13:51:12;17.77;;;11.10;;
4214;SDS011;2121;48.062;7.850;2022-12-08T13:53:59;18.50;;;10.07;;
4214;SDS011;2121;48.062;7.850;2022-12-08T13:56:33;22.00;;;11.97;;
4214;SDS011;2121;48.062;7.850;2022-12-08T13:59:24;19.80;;;11.47;;
4214;SDS011;2121;48.062;7.850;2022-12-08T14:01:55;17.40;;;10.97;;
4214;SDS011;2121;48.062;7.850;2022-12-08T14:04:26;17.33;;;10.90;;
4214;SDS011;2121;48.062;7.850;2022-12-08T14:06:53;19.93;;;11.27;;
4214;SDS011;2121;48.062;7.850;2022-12-08T14:09:26;16.47;;;10.20;;
4214;SDS011;2121;48.062;7.850;2022-12-08T14:12:03;21.03;;;11.10;;
4214;SDS011;2121;48.062;7.850;2022-12-08T14:14:38;13.40;;;8.93;;
4214;SDS011;2121;48.062;7.850;2022-12-08T14:17:09;18.20;;;10.53;;
4214;SDS011;2121;48.062;7.850;2022-12-08T14:19:38;16.30;;;8.80;;
4214;SDS011;2121;48.062;7.850;2022-12-08T14:22:14;14.47;;;8.80;;
4214;SDS011;2121;48.062;7.850;2022-12-08T14:24:45;14.30;;;8.57;;
4214;SDS011;2121;48.062;7.850;2022-12-08T14:27:22;15.57;;;8.20;;
4214;SDS011;2121;48.062;7.850;2022-12-08T14:29:54;14.47;;;8.00;;
4214;SDS011;2121;48.062;7.850;2022-12-08T14:35:36;10.27;;;8.40;;
4214;SDS011;2121;48.062;7.850;2022-12-08T14:38:04;15.47;;;9.30;;
4214;SDS011;2121;48.062;7.850;2022-12-08T14:40:38;16.80;;;10.20;;
4214;SDS011;2121;48.062;7.850;2022-12-08T14:45:53;14.93;;;10.17;;
4214;SDS011;2121;48.062;7.850;2022-12-08T14:48:25;17.53;;;11.37;;
4214;SDS011;2121;48.062;7.850;2022-12-08T14:53:47;28.10;;;14.23;;
4214;SDS011;2121;48.062;7.850;2022-12-08T14:59:36;25.30;;;14.10;;
4214;SDS011;2121;48.062;7.850;2022-12-08T15:04:53;28.00;;;15.43;;
4214;SDS011;2121;48.062;7.850;2022-12-08T15:07:43;28.60;;;18.20;;
4214;SDS011;2121;48.062;7.850;2022-12-08T15:12:54;23.83;;;13.17;;
4214;SDS011;2121;48.062;7.850;2022-12-08T15:15:47;28.93;;;14.37;;
4214;SDS011;2121;48.062;7.850;2022-12-08T15:18:35;27.80;;;15.53;;
4214;SDS011;2121;48.062;7.850;2022-12-08T15:21:05;27.63;;;13.87;;
4214;SDS011;2121;48.062;7.850;2022-12-08T15:23:40;32.23;;;16.07;;
4214;SDS011;2121;48.062;7.850;2022-12-08T15:26:11;33.23;;;15.77;;
4214;SDS011;2121;48.062;7.850;2022-12-08T15:28:51;21.70;;;12.90;;
4214;SDS011;2121;48.062;7.850;2022-12-08T15:31:17;18.53;;;12.67;;
4214;SDS011;2121;48.062;7.850;2022-12-08T15:33:43;27.93;;;14.40;;
4214;SDS011;2121;48.062;7.850;2022-12-08T15:36:09;29.50;;;15.90;;
4214;SDS011;2121;48.062;7.850;2022-12-08T15:38:35;25.00;;;15.37;;
4214;SDS011;2121;48.062;7.850;2022-12-08T15:41:02;29.13;;;17.07;;
4214;SDS011;2121;48.062;7.850;2022-12-08T15:43:29;30.03;;;16.33;;
4214;SDS011;2121;48.062;7.850;2022-12-08T15:45:56;29.03;;;17.20;;
4214;SDS011;2121;48.062;7.850;2022-12-08T15:48:23;31.80;;;17.33;;
4214;SDS011;2121;48.062;7.850;2022-12-08T15:50:51;32.67;;;16.67;;
4214;SDS011;2121;48.062;7.850;2022-12-08T15:53:18;28.53;;;14.60;;
4214;SDS011;2121;48.062;7.850;2022-12-08T15:55:44;24.87;;;13.37;;
4214;SDS011;2121;48.062;7.850;2022-12-08T15:58:23;20.40;;;13.63;;
4214;SDS011;2121;48.062;7.850;2022-12-08T16:00:49;21.70;;;12.80;;
4214;SDS011;2121;48.062;7.850;2022-12-08T16:03:18;23.50;;;15.40;;
4214;SDS011;2121;48.062;7.850;2022-12-08T16:05:55;22.07;;;13.23;;
4214;SDS011;2121;48.062;7.850;2022-12-08T16:08:25;19.87;;;12.30;;
4214;SDS011;2121;48.062;7.850;2022-12-08T16:10:51;21.23;;;12.87;;
4214;SDS011;2121;48.062;7.850;2022-12-08T16:13:18;21.60;;;13.20;;
4214;SDS011;2121;48.062;7.850;2022-12-08T16:16:04;23.63;;;14.53;;
4214;SDS011;2121;48.062;7.850;2022-12-08T16:18:35;22.10;;;12.97;;
4214;SDS011;2121;48.062;7.850;2022-12-08T16:21:04;24.07;;;13.83;;
4214;SDS011;2121;48.062;7.850;2022-12-08T16:23:30;32.33;;;16.80;;
4214;SDS011;2121;48.062;7.850;2022-12-08T16:25:56;40.67;;;21.00;;
4214;SDS011;2121;48.062;7.850;2022-12-08T16:28:24;43.90;;;21.97;;
4214;SDS011;2121;48.062;7.850;2022-12-08T16:30:51;55.43;;;20.83;;
4214;SDS011;2121;48.062;7.850;2022-12-08T16:33:17;52.00;;;21.00;;
4214;SDS011;2121;48.062;7.850;2022-12-08T16:35:42;48.73;;;24.07;;
4214;SDS011;2121;48.062;7.850;2022-12-08T16:38:10;37.83;;;17.63;;
4214;SDS011;2121;48.062;7.850;2022-12-08T16:40:39;49.10;;;20.37;;
4214;SDS011;2121;48.062;7.850;2022-12-08T16:43:24;31.07;;;17.60;;
4214;SDS011;2121;48.062;7.850;2022-12-08T16:45:50;30.37;;;16.10;;
4214;SDS011;2121;48.062;7.850;2022-12-08T16:48:16;33.50;;;17.83;;
4214;SDS011;2121;48.062;7.850;2022-12-08T16:50:43;29.57;;;16.33;;
4214;SDS011;2121;48.062;7.850;2022-12-08T16:53:09;26.20;;;16.60;;
4214;SDS011;2121;48.062;7.850;2022-12-08T16:55:37;34.80;;;17.50;;
4214;SDS011;2121;48.062;7.850;2022-12-08T16:58:03;31.63;;;18.30;;
4214;SDS011;2121;48.062;7.850;2022-12-08T17:00:30;29.10;;;15.30;;
4214;SDS011;2121;48.062;7.850;2022-12-08T17:03:01;24.23;;;15.10;;
4214;SDS011;2121;48.062;7.850;2022-12-08T17:05:28;28.60;;;14.20;;
4214;SDS011;2121;48.062;7.850;2022-12-08T17:07:54;21.70;;;12.40;;
4214;SDS011;2121;48.062;7.850;2022-12-08T17:10:22;23.67;;;12.00;;
4214;SDS011;2121;48.062;7.850;2022-12-08T17:12:52;21.93;;;14.57;;
4214;SDS011;2121;48.062;7.850;2022-12-08T17:15:20;26.67;;;11.87;;
4214;SDS011;2121;48.062;7.850;2022-12-08T17:17:48;21.53;;;14.20;;
4214;SDS011;2121;48.062;7.850;2022-12-08T17:20:17;20.70;;;13.10;;
4214;SDS011;2121;48.062;7.850;2022-12-08T17:22:49;19.83;;;13.37;;
4214;SDS011;2121;48.062;7.850;2022-12-08T17:25:19;21.80;;;12.07;;
4214;SDS011;2121;48.062;7.850;2022-12-08T17:27:45;21.23;;;11.47;;
4214;SDS011;2121;48.062;7.850;2022-12-08T17:30:12;19.87;;;11.53;;
4214;SDS011;2121;48.062;7.850;2022-12-08T17:32:40;22.90;;;13.73;;
4214;SDS011;2121;48.062;7.850;2022-12-08T17:35:07;23.93;;;14.23;;
4214;SDS011;2121;48.062;7.850;2022-12-08T17:37:33;18.50;;;11.57;;
4214;SDS011;2121;48.062;7.850;2022-12-08T17:39:59;18.13;;;11.00;;
4214;SDS011;2121;48.062;7.850;2022-12-08T17:42:25;13.07;;;9.40;;
4214;SDS011;2121;48.062;7.850;2022-12-08T17:44:51;16.20;;;10.13;;
4214;SDS011;2121;48.062;7.850;2022-12-08T17:47:18;13.10;;;8.73;;
4214;SDS011;2121;48.062;7.850;2022-12-08T17:49:44;15.90;;;9.07;;
4214;SDS011;2121;48.062;7.850;2022-12-08T17:52:10;11.97;;;8.90;;
4214;SDS011;2121;48.062;7.850;2022-12-08T17:54:36;17.67;;;10.00;;